sensor_id;sensor_type;location;lat;lon;timestamp;P1;durP1;ratioP1;P2;durP2;ratioP2
74042;SDS011;62384;53.600;10.040;2022-08-01T00:00:21;19.50;;;12.52;;
74042;SDS011;62384;53.600;10.040;2022-08-01T00:02:47;20.27;;;11.65;;
74042;SDS011;62384;53.600;10.040;2022-08-01T00:05:12;18.60;;;11.38;;
74042;SDS011;62384;53.600;10.040;2022-08-01T00:07:37;17.90;;;10.68;;
74042;SDS011;62384;53.600;10.040;2022-08-01T00:10:07;17.83;;;9.65;;
74042;SDS011;62384;53.600;10.040;2022-08-01T00:12:34;18.00;;;10.55;;
74042;SDS011;62384;53.600;10.040;2022-08-01T00:15:00;19.60;;;9.40;;
74042;SDS011;62384;53.600;10.040;2022-08-01T00:17:26;16.77;;;10.00;;
74042;SDS011;62384;53.600;10.040;2022-08-01T00:19:51;17.42;;;9.98;;
74042;SDS011;62384;53.600;10.040;2022-08-01T00:22:16;19.02;;;10.02;;
74042;SDS011;62384;53.600;10.040;2022-08-01T00:24:42;20.13;;;11.32;;
74042;SDS011;62384;53.600;10.040;2022-08-01T00:27:07;20.27;;;11.50;;
74042;SDS011;62384;53.600;10.040;2022-08-01T00:29:32;19.45;;;10.93;;
74042;SDS011;62384;53.600;10.040;2022-08-01T00:31:57;17.95;;;11.40;;
74042;SDS011;62384;53.600;10.040;2022-08-01T00:34:24;24.80;;;12.15;;
74042;SDS011;62384;53.600;10.040;2022-08-01T00:36:49;20.35;;;11.82;;
74042;SDS011;62384;53.600;10.040;2022-08-01T00:39:14;23.85;;;11.55;;
74042;SDS011;62384;53.600;10.040;2022-08-01T00:41:40;23.10;;;11.88;;
74042;SDS011;62384;53.600;10.040;2022-08-01T00:44:05;22.48;;;12.18;;
74042;SDS011;62384;53.600;10.040;2022-08-01T00:46:31;21.73;;;10.93;;
74042;SDS011;62384;53.600;10.040;2022-08-01T00:48:57;22.95;;;11.98;;
74042;SDS011;62384;53.600;10.040;2022-08-01T00:51:23;22.40;;;10.75;;
74042;SDS011;62384;53.600;10.040;2022-08-01T00:53:49;18.67;;;11.20;;
74042;SDS011;62384;53.600;10.040;2022-08-01T00:56:15;19.73;;;9.90;;
74042;SDS011;62384;53.600;10.040;2022-08-01T00:58:41;22.95;;;10.50;;
74042;SDS011;62384;53.600;10.040;2022-08-01T01:01:06;22.35;;;11.05;;
74042;SDS011;62384;53.600;10.040;2022-08-01T01:03:32;21.05;;;10.50;;
74042;SDS011;62384;53.600;10.040;2022-08-01T01:11:57;20.65;;;9.52;;
74042;SDS011;62384;53.600;10.040;2022-08-01T01:14:41;21.17;;;10.00;;
74042;SDS011;62384;53.600;10.040;2022-08-01T01:17:13;17.50;;;9.35;;
74042;SDS011;62384;53.600;10.040;2022-08-01T01:19:41;20.25;;;9.38;;
74042;SDS011;62384;53.600;10.040;2022-08-01T01:25:08;17.55;;;9.50;;
74042;SDS011;62384;53.600;10.040;2022-08-01T01:27:57;18.45;;;9.65;;
74042;SDS011;62384;53.600;10.040;2022-08-01T01:30:28;18.17;;;9.35;;
74042;SDS011;62384;53.600;10.040;2022-08-01T01:32:56;22.98;;;9.50;;
74042;SDS011;62384;53.600;10.040;2022-08-01T01:35:25;19.30;;;8.93;;
74042;SDS011;62384;53.600;10.040;2022-08-01T01:38:14;16.52;;;8.77;;
74042;SDS011;62384;53.600;10.040;2022-08-01T01:40:43;17.65;;;8.75;;
74042;SDS011;62384;53.600;10.040;2022-08-01T01:43:14;16.50;;;8.55;;
74042;SDS011;62384;53.600;10.040;2022-08-01T01:45:41;20.58;;;8.75;;
74042;SDS011;62384;53.600;10.040;2022-08-01T01:48:09;17.33;;;8.52;;
74042;SDS011;62384;53.600;10.040;2022-08-01T01:50:38;15.07;;;7.88;;
74042;SDS011;62384;53.600;10.040;2022-08-01T01:53:06;18.40;;;8.82;;
74042;SDS011;62384;53.600;10.040;2022-08-01T01:55:35;16.40;;;8.75;;
74042;SDS011;62384;53.600;10.040;2022-08-01T01:58:03;18.55;;;9.10;;
74042;SDS011;62384;53.600;10.040;2022-08-01T02:00:32;16.40;;;9.27;;
74042;SDS011;62384;53.600;10.040;2022-08-01T02:02:58;21.25;;;10.38;;
74042;SDS011;62384;53.600;10.040;2022-08-01T02:05:26;18.40;;;9.52;;
74042;SDS011;62384;53.600;10.040;2022-08-01T02:07:52;19.23;;;8.80;;
74042;SDS011;62384;53.600;10.040;2022-08-01T02:10:19;21.13;;;9.75;;
74042;SDS011;62384;53.600;10.040;2022-08-01T02:12:45;17.27;;;9.98;;
74042;SDS011;62384;53.600;10.040;2022-08-01T02:15:16;22.30;;;9.45;;
74042;SDS011;62384;53.600;10.040;2022-08-01T02:17:44;17.55;;;9.13;;
74042;SDS011;62384;53.600;10.040;2022-08-01T02:20:13;16.60;;;8.60;;
74042;SDS011;62384;53.600;10.040;2022-08-01T02:22:49;16.73;;;8.48;;
74042;SDS011;62384;53.600;10.040;2022-08-01T02:25:31;16.45;;;8.70;;
74042;SDS011;62384;53.600;10.040;2022-08-01T02:28:06;13.25;;;8.10;;
74042;SDS011;62384;53.600;10.040;2022-08-01T02:30:35;14.95;;;8.00;;
74042;SDS011;62384;53.600;10.040;2022-08-01T02:33:03;11.05;;;7.00;;
74042;SDS011;62384;53.600;10.040;2022-08-01T02:35:33;17.25;;;6.97;;
74042;SDS011;62384;53.600;10.040;2022-08-01T02:38:03;12.40;;;7.40;;
74042;SDS011;62384;53.600;10.040;2022-08-01T02:40:31;12.48;;;7.45;;
74042;SDS011;62384;53.600;10.040;2022-08-01T02:42:57;15.57;;;7.72;;
74042;SDS011;62384;53.600;10.040;2022-08-01T02:45:25;13.23;;;6.85;;
74042;SDS011;62384;53.600;10.040;2022-08-01T02:47:51;12.63;;;6.95;;
74042;SDS011;62384;53.600;10.040;2022-08-01T02:50:20;10.45;;;7.00;;
74042;SDS011;62384;53.600;10.040;2022-08-01T02:52:48;12.63;;;7.13;;
74042;SDS011;62384;53.600;10.040;2022-08-01T02:55:22;12.77;;;6.97;;
74042;SDS011;62384;53.600;10.040;2022-08-01T02:57:48;14.60;;;6.85;;
74042;SDS011;62384;53.600;10.040;2022-08-01T03:00:16;11.63;;;6.82;;
74042;SDS011;62384;53.600;10.040;2022-08-01T03:02:41;10.70;;;6.90;;
74042;SDS011;62384;53.600;10.040;2022-08-01T03:05:09;12.75;;;7.28;;
74042;SDS011;62384;53.600;10.040;2022-08-01T03:07:37;12.15;;;7.63;;
74042;SDS011;62384;53.600;10.040;2022-08-01T03:10:04;11.05;;;6.85;;
74042;SDS011;62384;53.600;10.040;2022-08-01T03:12:30;13.18;;;7.55;;
74042;SDS011;62384;53.600;10.040;2022-08-01T03:14:58;13.88;;;7.70;;
74042;SDS011;62384;53.600;10.040;2022-08-01T03:17:29;12.30;;;6.80;;
74042;SDS011;62384;53.600;10.040;2022-08-01T03:19:55;10.65;;;6.20;;
74042;SDS011;62384;53.600;10.040;2022-08-01T03:22:24;16.05;;;7.10;;
74042;SDS011;62384;53.600;10.040;2022-08-01T03:24:51;12.88;;;7.28;;
74042;SDS011;62384;53.600;10.040;2022-08-01T03:27:18;11.90;;;6.63;;
74042;SDS011;62384;53.600;10.040;2022-08-01T03:29:45;15.73;;;6.70;;
74042;SDS011;62384;53.600;10.040;2022-08-01T03:32:12;10.20;;;6.55;;
74042;SDS011;62384;53.600;10.040;2022-08-01T03:34:39;13.95;;;6.32;;
74042;SDS011;62384;53.600;10.040;2022-08-01T03:37:11;10.63;;;7.00;;
74042;SDS011;62384;53.600;10.040;2022-08-01T03:39:42;12.38;;;6.93;;
74042;SDS011;62384;53.600;10.040;2022-08-01T03:44:56;9.52;;;5.68;;
74042;SDS011;62384;53.600;10.040;2022-08-01T03:47:26;11.15;;;6.63;;
74042;SDS011;62384;53.600;10.040;2022-08-01T03:49:58;11.15;;;6.15;;
74042;SDS011;62384;53.600;10.040;2022-08-01T03:52:25;7.93;;;5.63;;
74042;SDS011;62384;53.600;10.040;2022-08-01T03:54:54;10.10;;;5.60;;
74042;SDS011;62384;53.600;10.040;2022-08-01T03:57:21;8.15;;;5.05;;
74042;SDS011;62384;53.600;10.040;2022-08-01T03:59:47;8.50;;;4.65;;
74042;SDS011;62384;53.600;10.040;2022-08-01T04:02:13;7.85;;;4.57;;
74042;SDS011;62384;53.600;10.040;2022-08-01T04:04:39;9.50;;;5.18;;
74042;SDS011;62384;53.600;10.040;2022-08-01T04:07:20;8.57;;;4.82;;
74042;SDS011;62384;53.600;10.040;2022-08-01T04:09:46;9.27;;;4.15;;
74042;SDS011;62384;53.600;10.040;2022-08-01T04:12:11;7.13;;;3.88;;
74042;SDS011;62384;53.600;10.040;2022-08-01T04:14:38;11.32;;;4.43;;
74042;SDS011;62384;53.600;10.040;2022-08-01T04:17:03;6.65;;;4.30;;
74042;SDS011;62384;53.600;10.040;2022-08-01T04:19:29;6.53;;;3.78;;
74042;SDS011;62384;53.600;10.040;2022-08-01T04:21:54;8.82;;;4.30;;
74042;SDS011;62384;53.600;10.040;2022-08-01T04:24:20;6.53;;;4.13;;
74042;SDS011;62384;53.600;10.040;2022-08-01T04:26:47;7.75;;;4.68;;
74042;SDS011;62384;53.600;10.040;2022-08-01T04:29:15;7.88;;;4.28;;
74042;SDS011;62384;53.600;10.040;2022-08-01T04:31:43;8.73;;;4.22;;
74042;SDS011;62384;53.600;10.040;2022-08-01T04:34:10;6.85;;;3.97;;
74042;SDS011;62384;53.600;10.040;2022-08-01T04:36:37;12.27;;;5.03;;
74042;SDS011;62384;53.600;10.040;2022-08-01T04:39:06;7.00;;;3.72;;
74042;SDS011;62384;53.600;10.040;2022-08-01T04:41:33;9.10;;;4.00;;
74042;SDS011;62384;53.600;10.040;2022-08-01T04:44:00;8.15;;;4.38;;
74042;SDS011;62384;53.600;10.040;2022-08-01T04:46:27;11.93;;;4.70;;
74042;SDS011;62384;53.600;10.040;2022-08-01T04:48:54;8.00;;;4.65;;
74042;SDS011;62384;53.600;10.040;2022-08-01T04:51:19;10.38;;;4.40;;
74042;SDS011;62384;53.600;10.040;2022-08-01T04:53:47;8.18;;;4.15;;
74042;SDS011;62384;53.600;10.040;2022-08-01T04:56:14;6.35;;;4.20;;
74042;SDS011;62384;53.600;10.040;2022-08-01T04:58:40;8.50;;;3.70;;
74042;SDS011;62384;53.600;10.040;2022-08-01T05:01:06;6.38;;;3.72;;
74042;SDS011;62384;53.600;10.040;2022-08-01T05:03:32;5.97;;;3.65;;
74042;SDS011;62384;53.600;10.040;2022-08-01T05:05:58;5.50;;;3.55;;
74042;SDS011;62384;53.600;10.040;2022-08-01T05:08:23;6.55;;;3.00;;
74042;SDS011;62384;53.600;10.040;2022-08-01T05:10:49;6.18;;;3.13;;
74042;SDS011;62384;53.600;10.040;2022-08-01T05:13:15;7.45;;;2.47;;
74042;SDS011;62384;53.600;10.040;2022-08-01T05:15:40;2.28;;;1.30;;
74042;SDS011;62384;53.600;10.040;2022-08-01T05:18:06;3.17;;;1.50;;
74042;SDS011;62384;53.600;10.040;2022-08-01T05:20:39;1.77;;;1.30;;
74042;SDS011;62384;53.600;10.040;2022-08-01T05:23:06;3.25;;;1.50;;
74042;SDS011;62384;53.600;10.040;2022-08-01T05:25:31;2.65;;;1.40;;
74042;SDS011;62384;53.600;10.040;2022-08-01T05:27:57;2.47;;;1.40;;
74042;SDS011;62384;53.600;10.040;2022-08-01T05:30:22;6.30;;;1.60;;
74042;SDS011;62384;53.600;10.040;2022-08-01T05:32:48;4.18;;;2.00;;
74042;SDS011;62384;53.600;10.040;2022-08-01T05:35:13;2.60;;;1.65;;
74042;SDS011;62384;53.600;10.040;2022-08-01T05:37:38;3.00;;;1.90;;
74042;SDS011;62384;53.600;10.040;2022-08-01T05:40:04;5.65;;;2.17;;
74042;SDS011;62384;53.600;10.040;2022-08-01T05:42:30;5.00;;;2.40;;
74042;SDS011;62384;53.600;10.040;2022-08-01T05:44:55;3.35;;;2.00;;
74042;SDS011;62384;53.600;10.040;2022-08-01T05:47:20;3.50;;;1.67;;
74042;SDS011;62384;53.600;10.040;2022-08-01T05:49:46;2.83;;;1.92;;
74042;SDS011;62384;53.600;10.040;2022-08-01T05:52:11;5.07;;;1.92;;
74042;SDS011;62384;53.600;10.040;2022-08-01T05:54:37;4.18;;;2.00;;
74042;SDS011;62384;53.600;10.040;2022-08-01T05:57:03;7.82;;;2.38;;
74042;SDS011;62384;53.600;10.040;2022-08-01T05:59:28;2.72;;;1.77;;
74042;SDS011;62384;53.600;10.040;2022-08-01T06:01:54;3.53;;;2.05;;
74042;SDS011;62384;53.600;10.040;2022-08-01T06:04:20;3.83;;;2.15;;
74042;SDS011;62384;53.600;10.040;2022-08-01T06:06:45;4.72;;;1.50;;
74042;SDS011;62384;53.600;10.040;2022-08-01T06:09:11;5.57;;;1.98;;
74042;SDS011;62384;53.600;10.040;2022-08-01T06:11:37;3.35;;;1.70;;
74042;SDS011;62384;53.600;10.040;2022-08-01T06:14:02;13.27;;;3.33;;
74042;SDS011;62384;53.600;10.040;2022-08-01T06:16:28;4.68;;;2.40;;
74042;SDS011;62384;53.600;10.040;2022-08-01T06:18:53;3.50;;;1.60;;
74042;SDS011;62384;53.600;10.040;2022-08-01T06:21:18;3.08;;;1.88;;
74042;SDS011;62384;53.600;10.040;2022-08-01T06:23:44;8.20;;;2.42;;
74042;SDS011;62384;53.600;10.040;2022-08-01T06:26:09;4.90;;;2.80;;
74042;SDS011;62384;53.600;10.040;2022-08-01T06:28:35;7.68;;;2.42;;
74042;SDS011;62384;53.600;10.040;2022-08-01T06:31:00;3.53;;;1.77;;
74042;SDS011;62384;53.600;10.040;2022-08-01T06:33:26;6.20;;;2.22;;
74042;SDS011;62384;53.600;10.040;2022-08-01T06:35:51;7.40;;;2.15;;
74042;SDS011;62384;53.600;10.040;2022-08-01T06:38:17;4.53;;;3.30;;
74042;SDS011;62384;53.600;10.040;2022-08-01T06:40:42;9.55;;;3.47;;
74042;SDS011;62384;53.600;10.040;2022-08-01T06:43:08;11.23;;;5.65;;
74042;SDS011;62384;53.600;10.040;2022-08-01T06:45:33;9.57;;;5.03;;
74042;SDS011;62384;53.600;10.040;2022-08-01T06:47:58;14.25;;;4.82;;
74042;SDS011;62384;53.600;10.040;2022-08-01T06:50:24;11.13;;;4.78;;
74042;SDS011;62384;53.600;10.040;2022-08-01T06:52:49;7.97;;;3.97;;
74042;SDS011;62384;53.600;10.040;2022-08-01T06:55:14;12.95;;;4.35;;
74042;SDS011;62384;53.600;10.040;2022-08-01T06:57:46;10.57;;;4.57;;
74042;SDS011;62384;53.600;10.040;2022-08-01T07:00:12;12.68;;;5.97;;
74042;SDS011;62384;53.600;10.040;2022-08-01T07:02:39;12.20;;;5.28;;
74042;SDS011;62384;53.600;10.040;2022-08-01T07:05:04;11.95;;;5.43;;
74042;SDS011;62384;53.600;10.040;2022-08-01T07:07:35;13.55;;;5.53;;
74042;SDS011;62384;53.600;10.040;2022-08-01T07:10:00;9.38;;;5.40;;
74042;SDS011;62384;53.600;10.040;2022-08-01T07:12:25;11.73;;;5.43;;
74042;SDS011;62384;53.600;10.040;2022-08-01T07:14:51;14.05;;;6.43;;
74042;SDS011;62384;53.600;10.040;2022-08-01T07:17:16;10.13;;;5.85;;
74042;SDS011;62384;53.600;10.040;2022-08-01T07:19:41;12.55;;;5.50;;
74042;SDS011;62384;53.600;10.040;2022-08-01T07:22:07;14.63;;;6.00;;
74042;SDS011;62384;53.600;10.040;2022-08-01T07:24:32;12.50;;;6.00;;
74042;SDS011;62384;53.600;10.040;2022-08-01T07:26:57;12.50;;;5.78;;
74042;SDS011;62384;53.600;10.040;2022-08-01T07:29:23;10.05;;;5.05;;
74042;SDS011;62384;53.600;10.040;2022-08-01T07:31:49;11.15;;;5.18;;
74042;SDS011;62384;53.600;10.040;2022-08-01T07:34:16;9.95;;;4.57;;
74042;SDS011;62384;53.600;10.040;2022-08-01T07:36:41;9.75;;;4.78;;
74042;SDS011;62384;53.600;10.040;2022-08-01T07:39:06;13.43;;;5.45;;
74042;SDS011;62384;53.600;10.040;2022-08-01T07:41:32;7.75;;;5.22;;
74042;SDS011;62384;53.600;10.040;2022-08-01T07:43:58;13.38;;;7.18;;
74042;SDS011;62384;53.600;10.040;2022-08-01T07:46:23;11.25;;;5.35;;
74042;SDS011;62384;53.600;10.040;2022-08-01T07:48:48;13.02;;;5.80;;
74042;SDS011;62384;53.600;10.040;2022-08-01T07:51:13;12.35;;;5.80;;
74042;SDS011;62384;53.600;10.040;2022-08-01T07:53:39;16.52;;;6.32;;
74042;SDS011;62384;53.600;10.040;2022-08-01T07:56:04;12.45;;;5.07;;
74042;SDS011;62384;53.600;10.040;2022-08-01T07:58:36;13.02;;;4.60;;
74042;SDS011;62384;53.600;10.040;2022-08-01T08:01:01;8.70;;;3.95;;
74042;SDS011;62384;53.600;10.040;2022-08-01T08:03:27;11.88;;;4.60;;
74042;SDS011;62384;53.600;10.040;2022-08-01T08:05:53;10.82;;;3.90;;
74042;SDS011;62384;53.600;10.040;2022-08-01T08:08:18;6.55;;;3.10;;
74042;SDS011;62384;53.600;10.040;2022-08-01T08:10:43;10.02;;;4.57;;
74042;SDS011;62384;53.600;10.040;2022-08-01T08:13:09;12.38;;;4.32;;
74042;SDS011;62384;53.600;10.040;2022-08-01T08:15:34;16.33;;;5.70;;
74042;SDS011;62384;53.600;10.040;2022-08-01T08:18:00;10.48;;;3.33;;
74042;SDS011;62384;53.600;10.040;2022-08-01T08:20:25;11.00;;;2.55;;
74042;SDS011;62384;53.600;10.040;2022-08-01T08:22:54;10.43;;;2.80;;
74042;SDS011;62384;53.600;10.040;2022-08-01T08:25:25;10.63;;;3.03;;
74042;SDS011;62384;53.600;10.040;2022-08-01T08:27:51;14.25;;;2.75;;
74042;SDS011;62384;53.600;10.040;2022-08-01T08:30:17;7.18;;;2.13;;
74042;SDS011;62384;53.600;10.040;2022-08-01T08:32:42;10.73;;;3.13;;
74042;SDS011;62384;53.600;10.040;2022-08-01T08:35:08;10.52;;;2.42;;
74042;SDS011;62384;53.600;10.040;2022-08-01T08:37:34;8.95;;;2.55;;
74042;SDS011;62384;53.600;10.040;2022-08-01T08:40:00;5.30;;;2.25;;
74042;SDS011;62384;53.600;10.040;2022-08-01T08:42:26;10.20;;;2.42;;
74042;SDS011;62384;53.600;10.040;2022-08-01T08:44:52;3.47;;;2.17;;
74042;SDS011;62384;53.600;10.040;2022-08-01T08:47:20;3.83;;;1.70;;
74042;SDS011;62384;53.600;10.040;2022-08-01T08:49:47;7.07;;;1.80;;
74042;SDS011;62384;53.600;10.040;2022-08-01T08:52:23;2.85;;;2.08;;
74042;SDS011;62384;53.600;10.040;2022-08-01T08:54:49;3.15;;;1.60;;
74042;SDS011;62384;53.600;10.040;2022-08-01T08:57:16;5.80;;;2.30;;
74042;SDS011;62384;53.600;10.040;2022-08-01T08:59:44;8.25;;;2.00;;
74042;SDS011;62384;53.600;10.040;2022-08-01T09:02:10;5.10;;;1.65;;
74042;SDS011;62384;53.600;10.040;2022-08-01T09:04:36;6.55;;;1.83;;
74042;SDS011;62384;53.600;10.040;2022-08-01T09:07:04;8.75;;;2.10;;
74042;SDS011;62384;53.600;10.040;2022-08-01T09:09:31;6.63;;;2.00;;
74042;SDS011;62384;53.600;10.040;2022-08-01T09:11:57;7.72;;;1.98;;
74042;SDS011;62384;53.600;10.040;2022-08-01T09:14:22;5.97;;;2.22;;
74042;SDS011;62384;53.600;10.040;2022-08-01T09:19:24;8.35;;;2.05;;
74042;SDS011;62384;53.600;10.040;2022-08-01T09:21:59;6.55;;;1.90;;
74042;SDS011;62384;53.600;10.040;2022-08-01T09:24:27;6.60;;;1.90;;
74042;SDS011;62384;53.600;10.040;2022-08-01T09:26:53;6.70;;;1.90;;
74042;SDS011;62384;53.600;10.040;2022-08-01T09:29:20;11.30;;;1.83;;
74042;SDS011;62384;53.600;10.040;2022-08-01T09:31:48;8.10;;;1.80;;
74042;SDS011;62384;53.600;10.040;2022-08-01T09:34:14;13.82;;;5.10;;
74042;SDS011;62384;53.600;10.040;2022-08-01T09:36:51;7.72;;;1.83;;
74042;SDS011;62384;53.600;10.040;2022-08-01T09:39:28;4.55;;;1.60;;
74042;SDS011;62384;53.600;10.040;2022-08-01T09:41:59;8.70;;;1.67;;
74042;SDS011;62384;53.600;10.040;2022-08-01T09:44:39;6.00;;;1.77;;
74042;SDS011;62384;53.600;10.040;2022-08-01T09:47:09;11.00;;;2.13;;
74042;SDS011;62384;53.600;10.040;2022-08-01T09:49:35;9.35;;;2.08;;
74042;SDS011;62384;53.600;10.040;2022-08-01T09:52:13;9.27;;;1.88;;
74042;SDS011;62384;53.600;10.040;2022-08-01T09:54:40;7.78;;;2.65;;
74042;SDS011;62384;53.600;10.040;2022-08-01T09:57:08;8.18;;;1.35;;
74042;SDS011;62384;53.600;10.040;2022-08-01T09:59:35;5.30;;;1.65;;
74042;SDS011;62384;53.600;10.040;2022-08-01T10:02:02;6.05;;;1.63;;
74042;SDS011;62384;53.600;10.040;2022-08-01T10:04:28;7.05;;;1.30;;
74042;SDS011;62384;53.600;10.040;2022-08-01T10:06:53;7.20;;;1.70;;
74042;SDS011;62384;53.600;10.040;2022-08-01T10:09:31;6.90;;;2.00;;
74042;SDS011;62384;53.600;10.040;2022-08-01T10:11:59;5.22;;;1.52;;
74042;SDS011;62384;53.600;10.040;2022-08-01T10:14:25;6.65;;;1.65;;
74042;SDS011;62384;53.600;10.040;2022-08-01T10:16:55;9.00;;;1.73;;
74042;SDS011;62384;53.600;10.040;2022-08-01T10:19:23;4.57;;;1.10;;
74042;SDS011;62384;53.600;10.040;2022-08-01T10:21:50;7.90;;;1.50;;
74042;SDS011;62384;53.600;10.040;2022-08-01T10:24:19;8.90;;;1.58;;
74042;SDS011;62384;53.600;10.040;2022-08-01T10:26:47;13.13;;;1.25;;
74042;SDS011;62384;53.600;10.040;2022-08-01T10:29:20;4.47;;;1.42;;
74042;SDS011;62384;53.600;10.040;2022-08-01T10:31:48;8.13;;;1.42;;
74042;SDS011;62384;53.600;10.040;2022-08-01T10:34:14;5.65;;;1.40;;
74042;SDS011;62384;53.600;10.040;2022-08-01T10:36:45;5.25;;;1.30;;
74042;SDS011;62384;53.600;10.040;2022-08-01T10:39:11;6.90;;;1.10;;
74042;SDS011;62384;53.600;10.040;2022-08-01T10:41:37;5.70;;;1.40;;
74042;SDS011;62384;53.600;10.040;2022-08-01T10:44:06;4.10;;;0.95;;
74042;SDS011;62384;53.600;10.040;2022-08-01T10:46:32;7.22;;;1.70;;
74042;SDS011;62384;53.600;10.040;2022-08-01T10:49:02;3.58;;;1.08;;
74042;SDS011;62384;53.600;10.040;2022-08-01T10:51:34;3.83;;;1.10;;
74042;SDS011;62384;53.600;10.040;2022-08-01T10:54:05;4.80;;;1.20;;
74042;SDS011;62384;53.600;10.040;2022-08-01T10:56:46;3.35;;;0.90;;
74042;SDS011;62384;53.600;10.040;2022-08-01T10:59:27;4.75;;;1.08;;
74042;SDS011;62384;53.600;10.040;2022-08-01T11:02:00;3.58;;;0.90;;
74042;SDS011;62384;53.600;10.040;2022-08-01T11:07:13;3.45;;;1.00;;
74042;SDS011;62384;53.600;10.040;2022-08-01T11:09:46;5.40;;;1.05;;
74042;SDS011;62384;53.600;10.040;2022-08-01T11:12:15;4.63;;;1.20;;
74042;SDS011;62384;53.600;10.040;2022-08-01T11:17:38;6.82;;;0.90;;
74042;SDS011;62384;53.600;10.040;2022-08-01T11:20:14;6.95;;;0.90;;
74042;SDS011;62384;53.600;10.040;2022-08-01T11:25:26;6.55;;;0.98;;
74042;SDS011;62384;53.600;10.040;2022-08-01T11:30:42;8.27;;;1.02;;
74042;SDS011;62384;53.600;10.040;2022-08-01T11:33:08;3.22;;;1.10;;
74042;SDS011;62384;53.600;10.040;2022-08-01T11:35:34;5.63;;;0.70;;
74042;SDS011;62384;53.600;10.040;2022-08-01T11:41:08;3.90;;;0.80;;
74042;SDS011;62384;53.600;10.040;2022-08-01T11:49:33;4.53;;;1.13;;
74042;SDS011;62384;53.600;10.040;2022-08-01T11:54:55;5.57;;;0.75;;
74042;SDS011;62384;53.600;10.040;2022-08-01T11:57:28;3.53;;;0.70;;
74042;SDS011;62384;53.600;10.040;2022-08-01T12:00:10;4.60;;;0.70;;
74042;SDS011;62384;53.600;10.040;2022-08-01T12:02:37;4.97;;;0.88;;
74042;SDS011;62384;53.600;10.040;2022-08-01T12:07:29;2.45;;;0.82;;
74042;SDS011;62384;53.600;10.040;2022-08-01T12:10:04;4.60;;;0.60;;
74042;SDS011;62384;53.600;10.040;2022-08-01T12:12:48;3.17;;;0.60;;
74042;SDS011;62384;53.600;10.040;2022-08-01T12:15:24;5.10;;;0.77;;
74042;SDS011;62384;53.600;10.040;2022-08-01T12:17:56;5.23;;;0.90;;
74042;SDS011;62384;53.600;10.040;2022-08-01T12:20:23;6.35;;;0.85;;
74042;SDS011;62384;53.600;10.040;2022-08-01T12:22:54;3.42;;;0.88;;
74042;SDS011;62384;53.600;10.040;2022-08-01T12:25:20;3.83;;;0.88;;
74042;SDS011;62384;53.600;10.040;2022-08-01T12:27:46;2.35;;;0.60;;
74042;SDS011;62384;53.600;10.040;2022-08-01T12:30:13;5.82;;;0.73;;
74042;SDS011;62384;53.600;10.040;2022-08-01T12:32:44;6.75;;;1.23;;
74042;SDS011;62384;53.600;10.040;2022-08-01T12:35:12;3.95;;;0.85;;
74042;SDS011;62384;53.600;10.040;2022-08-01T12:37:51;6.57;;;1.05;;
74042;SDS011;62384;53.600;10.040;2022-08-01T12:40:21;5.80;;;1.50;;
74042;SDS011;62384;53.600;10.040;2022-08-01T12:42:50;6.13;;;1.27;;
74042;SDS011;62384;53.600;10.040;2022-08-01T12:45:17;2.92;;;0.60;;
74042;SDS011;62384;53.600;10.040;2022-08-01T12:47:45;3.95;;;0.85;;
74042;SDS011;62384;53.600;10.040;2022-08-01T12:50:11;3.25;;;0.60;;
74042;SDS011;62384;53.600;10.040;2022-08-01T12:52:39;3.60;;;0.98;;
74042;SDS011;62384;53.600;10.040;2022-08-01T12:55:33;4.47;;;0.80;;
74042;SDS011;62384;53.600;10.040;2022-08-01T13:00:38;5.68;;;0.70;;
74042;SDS011;62384;53.600;10.040;2022-08-01T13:03:16;4.10;;;0.75;;
74042;SDS011;62384;53.600;10.040;2022-08-01T13:08:10;5.68;;;0.60;;
74042;SDS011;62384;53.600;10.040;2022-08-01T13:10:46;2.15;;;0.40;;
74042;SDS011;62384;53.600;10.040;2022-08-01T13:13:13;16.30;;;1.58;;
74042;SDS011;62384;53.600;10.040;2022-08-01T13:15:39;6.53;;;0.93;;
74042;SDS011;62384;53.600;10.040;2022-08-01T13:18:23;4.88;;;0.90;;
74042;SDS011;62384;53.600;10.040;2022-08-01T13:23:33;5.80;;;0.90;;
74042;SDS011;62384;53.600;10.040;2022-08-01T13:25:59;3.85;;;0.57;;
74042;SDS011;62384;53.600;10.040;2022-08-01T13:28:25;7.03;;;1.20;;
74042;SDS011;62384;53.600;10.040;2022-08-01T13:30:56;7.57;;;0.90;;
74042;SDS011;62384;53.600;10.040;2022-08-01T13:33:43;4.25;;;0.90;;
74042;SDS011;62384;53.600;10.040;2022-08-01T13:36:13;10.25;;;0.98;;
74042;SDS011;62384;53.600;10.040;2022-08-01T13:38:40;6.00;;;1.38;;
74042;SDS011;62384;53.600;10.040;2022-08-01T13:41:25;4.38;;;0.65;;
74042;SDS011;62384;53.600;10.040;2022-08-01T13:43:52;3.63;;;0.93;;
74042;SDS011;62384;53.600;10.040;2022-08-01T13:46:17;7.35;;;1.02;;
74042;SDS011;62384;53.600;10.040;2022-08-01T13:48:43;8.93;;;0.80;;
74042;SDS011;62384;53.600;10.040;2022-08-01T13:51:09;2.72;;;0.52;;
74042;SDS011;62384;53.600;10.040;2022-08-01T13:53:35;2.20;;;0.70;;
74042;SDS011;62384;53.600;10.040;2022-08-01T13:56:01;3.63;;;0.90;;
74042;SDS011;62384;53.600;10.040;2022-08-01T13:58:27;4.90;;;0.98;;
74042;SDS011;62384;53.600;10.040;2022-08-01T14:00:54;7.15;;;1.10;;
74042;SDS011;62384;53.600;10.040;2022-08-01T14:03:20;4.03;;;1.00;;
74042;SDS011;62384;53.600;10.040;2022-08-01T14:05:45;5.50;;;0.73;;
74042;SDS011;62384;53.600;10.040;2022-08-01T14:08:11;4.10;;;0.80;;
74042;SDS011;62384;53.600;10.040;2022-08-01T14:10:37;6.78;;;1.55;;
74042;SDS011;62384;53.600;10.040;2022-08-01T14:13:03;7.78;;;1.38;;
74042;SDS011;62384;53.600;10.040;2022-08-01T14:15:29;4.07;;;0.70;;
74042;SDS011;62384;53.600;10.040;2022-08-01T14:17:56;9.10;;;1.38;;
74042;SDS011;62384;53.600;10.040;2022-08-01T14:20:22;4.30;;;0.60;;
74042;SDS011;62384;53.600;10.040;2022-08-01T14:22:47;10.52;;;1.40;;
74042;SDS011;62384;53.600;10.040;2022-08-01T14:25:13;3.90;;;0.88;;
74042;SDS011;62384;53.600;10.040;2022-08-01T14:27:38;6.90;;;1.45;;
74042;SDS011;62384;53.600;10.040;2022-08-01T14:30:06;1.65;;;0.77;;
74042;SDS011;62384;53.600;10.040;2022-08-01T14:32:33;13.68;;;1.15;;
74042;SDS011;62384;53.600;10.040;2022-08-01T14:34:59;6.25;;;1.13;;
74042;SDS011;62384;53.600;10.040;2022-08-01T14:37:25;3.97;;;0.88;;
74042;SDS011;62384;53.600;10.040;2022-08-01T14:39:50;2.55;;;0.60;;
74042;SDS011;62384;53.600;10.040;2022-08-01T14:42:16;3.38;;;0.45;;
74042;SDS011;62384;53.600;10.040;2022-08-01T14:44:41;4.13;;;0.98;;
74042;SDS011;62384;53.600;10.040;2022-08-01T14:47:06;3.60;;;1.02;;
74042;SDS011;62384;53.600;10.040;2022-08-01T14:49:32;7.43;;;0.65;;
74042;SDS011;62384;53.600;10.040;2022-08-01T14:51:57;5.80;;;1.13;;
74042;SDS011;62384;53.600;10.040;2022-08-01T14:54:29;4.97;;;1.23;;
74042;SDS011;62384;53.600;10.040;2022-08-01T14:56:54;7.00;;;0.90;;
74042;SDS011;62384;53.600;10.040;2022-08-01T14:59:20;7.00;;;1.13;;
74042;SDS011;62384;53.600;10.040;2022-08-01T15:01:45;5.13;;;1.20;;
74042;SDS011;62384;53.600;10.040;2022-08-01T15:04:14;5.78;;;0.90;;
74042;SDS011;62384;53.600;10.040;2022-08-01T15:06:39;3.90;;;0.93;;
74042;SDS011;62384;53.600;10.040;2022-08-01T15:09:05;7.18;;;0.80;;
74042;SDS011;62384;53.600;10.040;2022-08-01T15:11:30;3.90;;;0.80;;
74042;SDS011;62384;53.600;10.040;2022-08-01T15:13:57;5.72;;;1.00;;
74042;SDS011;62384;53.600;10.040;2022-08-01T15:16:44;7.95;;;1.42;;
74042;SDS011;62384;53.600;10.040;2022-08-01T15:19:09;3.05;;;1.05;;